sensor_id;sensor_type;location;lat;lon;timestamp;P1;durP1;ratioP1;P2;durP2;ratioP2
64710;SDS011;51139;45.626;6.850;2024-02-04T07:44:22;9.40;;;1.17;;
64710;SDS011;51139;45.626;6.850;2024-02-04T07:46:49;4.15;;;0.82;;
64710;SDS011;51139;45.626;6.850;2024-02-04T07:49:14;13.07;;;1.48;;
64710;SDS011;51139;45.626;6.850;2024-02-04T07:51:40;8.88;;;2.22;;
64710;SDS011;51139;45.626;6.850;2024-02-04T07:54:05;9.73;;;1.98;;
64710;SDS011;51139;45.626;6.850;2024-02-04T07:56:31;11.77;;;1.13;;
64710;SDS011;51139;45.626;6.850;2024-02-04T07:58:56;4.35;;;1.00;;
64710;SDS011;51139;45.626;6.850;2024-02-04T08:01:21;2.92;;;0.82;;
64710;SDS011;51139;45.626;6.850;2024-02-04T08:03:48;3.58;;;0.80;;
64710;SDS011;51139;45.626;6.850;2024-02-04T08:06:14;3.60;;;1.02;;
64710;SDS011;51139;45.626;6.850;2024-02-04T08:08:39;2.53;;;0.70;;
64710;SDS011;51139;45.626;6.850;2024-02-04T08:11:07;1.10;;;0.88;;
64710;SDS011;51139;45.626;6.850;2024-02-04T08:13:32;2.55;;;1.00;;
64710;SDS011;51139;45.626;6.850;2024-02-04T08:15:58;5.47;;;0.90;;
64710;SDS011;51139;45.626;6.850;2024-02-04T08:18:23;4.15;;;0.80;;
64710;SDS011;51139;45.626;6.850;2024-02-04T08:20:48;2.00;;;0.75;;
64710;SDS011;51139;45.626;6.850;2024-02-04T08:23:14;2.13;;;0.82;;
64710;SDS011;51139;45.626;6.850;2024-02-04T08:25:40;4.57;;;0.95;;
64710;SDS011;51139;45.626;6.850;2024-02-04T08:28:05;4.90;;;1.58;;
64710;SDS011;51139;45.626;6.850;2024-02-04T08:30:31;10.13;;;1.92;;
64710;SDS011;51139;45.626;6.850;2024-02-04T08:32:56;2.08;;;0.90;;
64710;SDS011;51139;45.626;6.850;2024-02-04T08:35:22;4.53;;;0.70;;
64710;SDS011;51139;45.626;6.850;2024-02-04T08:37:47;2.95;;;0.80;;
64710;SDS011;51139;45.626;6.850;2024-02-04T08:40:13;3.03;;;0.75;;
64710;SDS011;51139;45.626;6.850;2024-02-04T08:42:38;1.83;;;0.95;;
64710;SDS011;51139;45.626;6.850;2024-02-04T08:45:04;3.45;;;0.90;;
64710;SDS011;51139;45.626;6.850;2024-02-04T08:47:30;2.10;;;0.68;;
64710;SDS011;51139;45.626;6.850;2024-02-04T08:49:55;19.02;;;2.05;;
64710;SDS011;51139;45.626;6.850;2024-02-04T08:52:21;3.20;;;0.60;;
64710;SDS011;51139;45.626;6.850;2024-02-04T08:54:46;1.27;;;0.70;;
64710;SDS011;51139;45.626;6.850;2024-02-04T08:57:12;1.25;;;0.70;;
64710;SDS011;51139;45.626;6.850;2024-02-04T08:59:37;6.32;;;1.58;;
64710;SDS011;51139;45.626;6.850;2024-02-04T09:02:03;6.47;;;1.25;;
64710;SDS011;51139;45.626;6.850;2024-02-04T09:04:28;2.10;;;0.90;;
64710;SDS011;51139;45.626;6.850;2024-02-04T09:06:53;1.83;;;0.80;;
64710;SDS011;51139;45.626;6.850;2024-02-04T09:09:19;2.20;;;0.85;;
64710;SDS011;51139;45.626;6.850;2024-02-04T09:11:44;1.52;;;0.60;;
64710;SDS011;51139;45.626;6.850;2024-02-04T09:14:10;1.85;;;0.90;;
64710;SDS011;51139;45.626;6.850;2024-02-04T09:16:37;1.25;;;0.70;;
64710;SDS011;51139;45.626;6.850;2024-02-04T09:19:03;1.77;;;0.80;;
64710;SDS011;51139;45.626;6.850;2024-02-04T09:21:28;1.38;;;0.70;;
64710;SDS011;51139;45.626;6.850;2024-02-04T09:23:54;2.80;;;1.08;;
64710;SDS011;51139;45.626;6.850;2024-02-04T09:26:19;1.75;;;0.80;;
64710;SDS011;51139;45.626;6.850;2024-02-04T09:28:45;1.45;;;0.70;;
64710;SDS011;51139;45.626;6.850;2024-02-04T09:31:10;1.55;;;0.90;;
64710;SDS011;51139;45.626;6.850;2024-02-04T09:33:36;1.73;;;0.80;;
64710;SDS011;51139;45.626;6.850;2024-02-04T09:36:03;2.35;;;0.90;;
64710;SDS011;51139;45.626;6.850;2024-02-04T09:38:29;1.80;;;0.70;;
64710;SDS011;51139;45.626;6.850;2024-02-04T09:40:54;2.22;;;0.80;;
64710;SDS011;51139;45.626;6.850;2024-02-04T09:43:20;2.55;;;0.82;;
64710;SDS011;51139;45.626;6.850;2024-02-04T09:45:46;3.42;;;0.95;;
64710;SDS011;51139;45.626;6.850;2024-02-04T09:48:14;2.85;;;0.90;;
64710;SDS011;51139;45.626;6.850;2024-02-04T09:50:42;1.08;;;0.75;;
64710;SDS011;51139;45.626;6.850;2024-02-04T09:53:08;1.10;;;0.80;;
64710;SDS011;51139;45.626;6.850;2024-02-04T09:55:34;1.95;;;0.80;;
64710;SDS011;51139;45.626;6.850;2024-02-04T09:58:00;2.35;;;1.00;;
64710;SDS011;51139;45.626;6.850;2024-02-04T10:00:26;2.45;;;0.93;;
64710;SDS011;51139;45.626;6.850;2024-02-04T10:02:54;2.00;;;0.98;;
64710;SDS011;51139;45.626;6.850;2024-02-04T10:05:20;0.60;;;0.60;;
64710;SDS011;51139;45.626;6.850;2024-02-04T10:07:46;1.48;;;0.60;;
64710;SDS011;51139;45.626;6.850;2024-02-04T10:10:12;2.47;;;0.80;;
64710;SDS011;51139;45.626;6.850;2024-02-04T10:12:37;1.75;;;0.60;;
64710;SDS011;51139;45.626;6.850;2024-02-04T10:15:06;1.02;;;0.68;;
64710;SDS011;51139;45.626;6.850;2024-02-04T10:17:32;2.20;;;0.55;;
64710;SDS011;51139;45.626;6.850;2024-02-04T10:19:57;2.17;;;0.90;;
64710;SDS011;51139;45.626;6.850;2024-02-04T10:22:24;1.75;;;1.10;;
64710;SDS011;51139;45.626;6.850;2024-02-04T10:24:51;1.40;;;0.60;;
64710;SDS011;51139;45.626;6.850;2024-02-04T10:27:17;1.33;;;0.70;;
64710;SDS011;51139;45.626;6.850;2024-02-04T10:29:42;1.38;;;0.63;;
64710;SDS011;51139;45.626;6.850;2024-02-04T10:32:08;1.35;;;0.70;;
64710;SDS011;51139;45.626;6.850;2024-02-04T10:34:36;1.80;;;0.82;;
64710;SDS011;51139;45.626;6.850;2024-02-04T10:37:02;1.50;;;0.80;;
64710;SDS011;51139;45.626;6.850;2024-02-04T10:39:28;1.42;;;0.60;;
64710;SDS011;51139;45.626;6.850;2024-02-04T10:41:53;1.25;;;0.60;;
64710;SDS011;51139;45.626;6.850;2024-02-04T10:44:22;3.50;;;0.65;;
64710;SDS011;51139;45.626;6.850;2024-02-04T10:46:49;1.75;;;0.68;;
64710;SDS011;51139;45.626;6.850;2024-02-04T10:49:15;1.92;;;0.60;;
64710;SDS011;51139;45.626;6.850;2024-02-04T10:51:42;1.73;;;0.57;;
64710;SDS011;51139;45.626;6.850;2024-02-04T10:54:14;2.50;;;0.82;;
64710;SDS011;51139;45.626;6.850;2024-02-04T10:56:42;2.50;;;0.80;;
64710;SDS011;51139;45.626;6.850;2024-02-04T10:59:09;3.53;;;0.80;;
64710;SDS011;51139;45.626;6.850;2024-02-04T11:01:37;3.42;;;1.00;;
64710;SDS011;51139;45.626;6.850;2024-02-04T11:04:04;2.00;;;0.90;;
64710;SDS011;51139;45.626;6.850;2024-02-04T11:06:32;2.50;;;0.70;;
64710;SDS011;51139;45.626;6.850;2024-02-04T11:08:58;1.50;;;0.68;;
64710;SDS011;51139;45.626;6.850;2024-02-04T11:11:25;1.52;;;0.70;;
64710;SDS011;51139;45.626;6.850;2024-02-04T11:13:53;1.45;;;0.52;;
64710;SDS011;51139;45.626;6.850;2024-02-04T11:16:29;3.00;;;1.00;;
64710;SDS011;51139;45.626;6.850;2024-02-04T11:19:23;2.35;;;0.60;;
64710;SDS011;51139;45.626;6.850;2024-02-04T11:22:09;1.73;;;0.80;;
64710;SDS011;51139;45.626;6.850;2024-02-04T11:27:05;3.83;;;0.80;;
64710;SDS011;51139;45.626;6.850;2024-02-04T11:29:31;1.80;;;0.60;;
64710;SDS011;51139;45.626;6.850;2024-02-04T11:31:57;1.67;;;0.70;;
64710;SDS011;51139;45.626;6.850;2024-02-04T11:34:23;1.25;;;0.80;;
64710;SDS011;51139;45.626;6.850;2024-02-04T11:36:48;2.63;;;1.00;;
64710;SDS011;51139;45.626;6.850;2024-02-04T11:39:17;2.10;;;0.70;;
64710;SDS011;51139;45.626;6.850;2024-02-04T11:41:46;1.42;;;0.70;;
64710;SDS011;51139;45.626;6.850;2024-02-04T11:44:20;1.65;;;0.82;;
64710;SDS011;51139;45.626;6.850;2024-02-04T11:46:49;1.13;;;0.70;;
64710;SDS011;51139;45.626;6.850;2024-02-04T11:49:16;1.05;;;0.60;;
64710;SDS011;51139;45.626;6.850;2024-02-04T11:51:47;1.27;;;0.50;;
64710;SDS011;51139;45.626;6.850;2024-02-04T11:54:14;3.08;;;0.70;;
64710;SDS011;51139;45.626;6.850;2024-02-04T11:56:41;3.05;;;0.60;;
64710;SDS011;51139;45.626;6.850;2024-02-04T11:59:07;1.75;;;1.00;;
64710;SDS011;51139;45.626;6.850;2024-02-04T12:01:32;2.70;;;0.77;;
64710;SDS011;51139;45.626;6.850;2024-02-04T12:04:08;3.03;;;0.70;;
64710;SDS011;51139;45.626;6.850;2024-02-04T12:06:42;1.30;;;0.60;;
64710;SDS011;51139;45.626;6.850;2024-02-04T12:09:08;2.25;;;0.75;;
64710;SDS011;51139;45.626;6.850;2024-02-04T12:11:38;2.25;;;0.60;;
64710;SDS011;51139;45.626;6.850;2024-02-04T12:14:04;3.80;;;0.85;;
64710;SDS011;51139;45.626;6.850;2024-02-04T12:16:32;2.45;;;0.85;;
64710;SDS011;51139;45.626;6.850;2024-02-04T12:19:00;0.95;;;0.65;;
64710;SDS011;51139;45.626;6.850;2024-02-04T12:21:28;1.98;;;0.80;;
64710;SDS011;51139;45.626;6.850;2024-02-04T12:23:54;1.45;;;0.60;;
64710;SDS011;51139;45.626;6.850;2024-02-04T12:26:20;2.55;;;0.80;;
64710;SDS011;51139;45.626;6.850;2024-02-04T12:28:46;2.55;;;0.80;;
64710;SDS011;51139;45.626;6.850;2024-02-04T12:31:21;1.40;;;1.00;;
64710;SDS011;51139;45.626;6.850;2024-02-04T12:33:57;0.88;;;0.60;;
64710;SDS011;51139;45.626;6.850;2024-02-04T12:36:25;1.77;;;0.95;;
64710;SDS011;51139;45.626;6.850;2024-02-04T12:38:52;1.33;;;0.80;;
64710;SDS011;51139;45.626;6.850;2024-02-04T12:41:28;1.83;;;0.70;;
64710;SDS011;51139;45.626;6.850;2024-02-04T12:43:55;2.35;;;0.65;;
64710;SDS011;51139;45.626;6.850;2024-02-04T12:46:27;1.52;;;0.60;;
64710;SDS011;51139;45.626;6.850;2024-02-04T12:48:53;1.25;;;0.60;;
64710;SDS011;51139;45.626;6.850;2024-02-04T12:51:26;1.17;;;0.55;;
64710;SDS011;51139;45.626;6.850;2024-02-04T12:54:05;1.08;;;0.68;;
64710;SDS011;51139;45.626;6.850;2024-02-04T12:59:06;2.85;;;0.70;;
64710;SDS011;51139;45.626;6.850;2024-02-04T13:01:33;2.60;;;0.60;;
64710;SDS011;51139;45.626;6.850;2024-02-04T13:03:58;1.63;;;0.70;;
64710;SDS011;51139;45.626;6.850;2024-02-04T13:06:24;3.80;;;1.02;;
64710;SDS011;51139;45.626;6.850;2024-02-04T13:08:53;2.10;;;0.70;;
64710;SDS011;51139;45.626;6.850;2024-02-04T13:11:22;3.15;;;0.77;;
64710;SDS011;51139;45.626;6.850;2024-02-04T13:13:48;1.13;;;0.70;;
64710;SDS011;51139;45.626;6.850;2024-02-04T13:16:13;2.80;;;1.08;;
64710;SDS011;51139;45.626;6.850;2024-02-04T13:18:39;3.70;;;1.15;;
64710;SDS011;51139;45.626;6.850;2024-02-04T13:21:04;1.15;;;0.70;;
64710;SDS011;51139;45.626;6.850;2024-02-04T13:23:29;2.35;;;0.77;;
64710;SDS011;51139;45.626;6.850;2024-02-04T13:25:55;2.05;;;0.68;;
64710;SDS011;51139;45.626;6.850;2024-02-04T13:28:21;1.38;;;0.70;;
64710;SDS011;51139;45.626;6.850;2024-02-04T13:30:48;0.98;;;0.65;;
64710;SDS011;51139;45.626;6.850;2024-02-04T13:33:13;0.98;;;0.50;;
64710;SDS011;51139;45.626;6.850;2024-02-04T13:35:39;1.95;;;0.80;;
64710;SDS011;51139;45.626;6.850;2024-02-04T13:38:04;1.83;;;0.80;;
64710;SDS011;51139;45.626;6.850;2024-02-04T13:40:30;1.55;;;0.52;;
64710;SDS011;51139;45.626;6.850;2024-02-04T13:42:56;4.60;;;1.08;;
64710;SDS011;51139;45.626;6.850;2024-02-04T13:45:21;3.63;;;0.80;;
64710;SDS011;51139;45.626;6.850;2024-02-04T13:47:47;1.15;;;0.70;;
64710;SDS011;51139;45.626;6.850;2024-02-04T13:50:13;1.52;;;0.70;;
64710;SDS011;51139;45.626;6.850;2024-02-04T13:52:39;1.98;;;0.77;;
64710;SDS011;51139;45.626;6.850;2024-02-04T13:55:05;2.60;;;0.90;;
64710;SDS011;51139;45.626;6.850;2024-02-04T13:57:32;1.27;;;0.50;;
64710;SDS011;51139;45.626;6.850;2024-02-04T13:59:57;1.27;;;0.65;;
64710;SDS011;51139;45.626;6.850;2024-02-04T14:02:23;2.72;;;0.93;;
64710;SDS011;51139;45.626;6.850;2024-02-04T14:04:50;2.95;;;1.00;;
64710;SDS011;51139;45.626;6.850;2024-02-04T14:07:15;1.50;;;0.82;;
64710;SDS011;51139;45.626;6.850;2024-02-04T14:09:41;3.58;;;0.80;;
64710;SDS011;51139;45.626;6.850;2024-02-04T14:12:06;0.93;;;0.70;;
64710;SDS011;51139;45.626;6.850;2024-02-04T14:14:32;1.33;;;0.70;;
64710;SDS011;51139;45.626;6.850;2024-02-04T14:16:57;1.92;;;1.00;;
64710;SDS011;51139;45.626;6.850;2024-02-04T14:19:23;1.77;;;0.70;;
64710;SDS011;51139;45.626;6.850;2024-02-04T14:21:48;2.28;;;0.75;;
64710;SDS011;51139;45.626;6.850;2024-02-04T14:24:14;1.75;;;0.70;;
64710;SDS011;51139;45.626;6.850;2024-02-04T14:26:39;1.90;;;0.95;;
64710;SDS011;51139;45.626;6.850;2024-02-04T14:29:06;1.35;;;0.75;;
64710;SDS011;51139;45.626;6.850;2024-02-04T14:31:32;1.10;;;0.63;;
64710;SDS011;51139;45.626;6.850;2024-02-04T14:33:58;1.45;;;0.80;;
64710;SDS011;51139;45.626;6.850;2024-02-04T14:36:23;0.85;;;0.68;;
64710;SDS011;51139;45.626;6.850;2024-02-04T14:38:48;1.95;;;0.80;;
64710;SDS011;51139;45.626;6.850;2024-02-04T14:41:14;1.73;;;0.75;;
64710;SDS011;51139;45.626;6.850;2024-02-04T14:43:39;1.20;;;0.73;;
64710;SDS011;51139;45.626;6.850;2024-02-04T14:46:04;2.90;;;0.77;;
64710;SDS011;51139;45.626;6.850;2024-02-04T14:48:30;2.15;;;0.80;;
64710;SDS011;51139;45.626;6.850;2024-02-04T14:50:56;2.15;;;0.70;;
64710;SDS011;51139;45.626;6.850;2024-02-04T14:53:24;3.00;;;0.73;;
64710;SDS011;51139;45.626;6.850;2024-02-04T14:55:49;2.00;;;0.80;;
64710;SDS011;51139;45.626;6.850;2024-02-04T14:58:15;1.45;;;0.52;;
64710;SDS011;51139;45.626;6.850;2024-02-04T15:00:40;1.23;;;0.52;;
64710;SDS011;51139;45.626;6.850;2024-02-04T15:03:06;2.63;;;0.73;;
64710;SDS011;51139;45.626;6.850;2024-02-04T15:05:31;1.73;;;0.80;;
64710;SDS011;51139;45.626;6.850;2024-02-04T15:07:56;2.63;;;0.73;;
64710;SDS011;51139;45.626;6.850;2024-02-04T15:10:22;3.22;;;0.93;;
64710;SDS011;51139;45.626;6.850;2024-02-04T15:12:48;1.70;;;0.60;;
64710;SDS011;51139;45.626;6.850;2024-02-04T15:15:14;1.48;;;0.70;;
64710;SDS011;51139;45.626;6.850;2024-02-04T15:17:40;1.33;;;0.80;;
64710;SDS011;51139;45.626;6.850;2024-02-04T15:20:06;1.77;;;0.90;;
64710;SDS011;51139;45.626;6.850;2024-02-04T15:22:33;1.63;;;0.65;;
64710;SDS011;51139;45.626;6.850;2024-02-04T15:24:59;1.08;;;0.70;;
64710;SDS011;51139;45.626;6.850;2024-02-04T15:27:26;1.02;;;0.68;;
64710;SDS011;51139;45.626;6.850;2024-02-04T15:29:52;1.60;;;0.60;;
64710;SDS011;51139;45.626;6.850;2024-02-04T15:32:20;3.53;;;0.80;;
64710;SDS011;51139;45.626;6.850;2024-02-04T15:34:46;1.75;;;0.77;;
64710;SDS011;51139;45.626;6.850;2024-02-04T15:37:12;1.90;;;0.60;;
64710;SDS011;51139;45.626;6.850;2024-02-04T15:39:38;1.77;;;0.80;;
64710;SDS011;51139;45.626;6.850;2024-02-04T15:42:03;3.40;;;0.80;;
64710;SDS011;51139;45.626;6.850;2024-02-04T15:44:29;1.63;;;0.70;;
64710;SDS011;51139;45.626;6.850;2024-02-04T15:46:56;1.88;;;0.85;;
64710;SDS011;51139;45.626;6.850;2024-02-04T15:49:24;1.65;;;1.00;;
64710;SDS011;51139;45.626;6.850;2024-02-04T15:51:49;2.58;;;0.80;;
64710;SDS011;51139;45.626;6.850;2024-02-04T15:54:15;1.77;;;0.80;;
64710;SDS011;51139;45.626;6.850;2024-02-04T15:56:44;1.85;;;0.82;;
64710;SDS011;51139;45.626;6.850;2024-02-04T15:59:19;1.42;;;0.77;;
64710;SDS011;51139;45.626;6.850;2024-02-04T16:01:52;2.60;;;0.90;;
64710;SDS011;51139;45.626;6.850;2024-02-04T16:04:17;2.00;;;0.82;;
64710;SDS011;51139;45.626;6.850;2024-02-04T16:06:43;2.88;;;0.90;;
64710;SDS011;51139;45.626;6.850;2024-02-04T16:09:09;1.85;;;0.70;;
64710;SDS011;51139;45.626;6.850;2024-02-04T16:14:34;2.60;;;0.70;;
64710;SDS011;51139;45.626;6.850;2024-02-04T16:17:11;1.48;;;0.80;;
64710;SDS011;51139;45.626;6.850;2024-02-04T16:19:38;2.92;;;1.02;;
64710;SDS011;51139;45.626;6.850;2024-02-04T16:22:04;1.88;;;0.70;;
64710;SDS011;51139;45.626;6.850;2024-02-04T16:24:30;1.95;;;0.68;;
64710;SDS011;51139;45.626;6.850;2024-02-04T16:26:55;1.85;;;0.98;;
64710;SDS011;51139;45.626;6.850;2024-02-04T16:29:21;1.67;;;0.70;;
64710;SDS011;51139;45.626;6.850;2024-02-04T16:34:18;1.95;;;0.77;;
64710;SDS011;51139;45.626;6.850;2024-02-04T16:36:43;3.63;;;1.55;;
64710;SDS011;51139;45.626;6.850;2024-02-04T16:39:09;38.47;;;17.00;;
64710;SDS011;51139;45.626;6.850;2024-02-04T16:41:34;15.25;;;7.18;;
64710;SDS011;51139;45.626;6.850;2024-02-04T16:44:00;11.75;;;2.35;;
64710;SDS011;51139;45.626;6.850;2024-02-04T16:46:26;10.55;;;3.30;;
64710;SDS011;51139;45.626;6.850;2024-02-04T16:48:52;6.70;;;2.88;;
64710;SDS011;51139;45.626;6.850;2024-02-04T16:51:18;2.40;;;1.10;;
64710;SDS011;51139;45.626;6.850;2024-02-04T16:53:43;6.57;;;1.92;;
64710;SDS011;51139;45.626;6.850;2024-02-04T16:56:11;6.97;;;1.67;;
64710;SDS011;51139;45.626;6.850;2024-02-04T16:58:36;11.70;;;2.42;;
64710;SDS011;51139;45.626;6.850;2024-02-04T17:01:02;5.63;;;1.70;;
64710;SDS011;51139;45.626;6.850;2024-02-04T17:03:28;6.57;;;1.40;;
64710;SDS011;51139;45.626;6.850;2024-02-04T17:05:54;16.30;;;8.73;;
64710;SDS011;51139;45.626;6.850;2024-02-04T17:08:19;18.92;;;10.63;;
64710;SDS011;51139;45.626;6.850;2024-02-04T17:10:45;10.23;;;2.90;;
64710;SDS011;51139;45.626;6.850;2024-02-04T17:13:13;3.30;;;1.60;;
64710;SDS011;51139;45.626;6.850;2024-02-04T17:15:38;6.60;;;1.45;;
64710;SDS011;51139;45.626;6.850;2024-02-04T17:18:04;8.02;;;1.40;;
64710;SDS011;51139;45.626;6.850;2024-02-04T17:20:40;4.97;;;1.27;;
64710;SDS011;51139;45.626;6.850;2024-02-04T17:23:12;5.47;;;1.10;;
64710;SDS011;51139;45.626;6.850;2024-02-04T17:25:38;5.18;;;1.20;;
64710;SDS011;51139;45.626;6.850;2024-02-04T17:28:06;3.28;;;1.38;;
64710;SDS011;51139;45.626;6.850;2024-02-04T17:30:32;4.65;;;1.15;;
64710;SDS011;51139;45.626;6.850;2024-02-04T17:32:58;16.10;;;2.13;;
64710;SDS011;51139;45.626;6.850;2024-02-04T17:35:24;8.05;;;1.65;;
64710;SDS011;51139;45.626;6.850;2024-02-04T17:37:53;2.83;;;1.30;;
64710;SDS011;51139;45.626;6.850;2024-02-04T17:40:18;8.00;;;1.40;;
64710;SDS011;51139;45.626;6.850;2024-02-04T17:42:44;7.15;;;1.42;;
64710;SDS011;51139;45.626;6.850;2024-02-04T17:45:10;9.98;;;2.22;;
64710;SDS011;51139;45.626;6.850;2024-02-04T17:47:36;4.72;;;1.73;;
64710;SDS011;51139;45.626;6.850;2024-02-04T17:50:01;3.97;;;1.80;;
64710;SDS011;51139;45.626;6.850;2024-02-04T17:52:27;8.25;;;1.98;;
64710;SDS011;51139;45.626;6.850;2024-02-04T17:54:56;5.05;;;1.45;;
64710;SDS011;51139;45.626;6.850;2024-02-04T17:57:23;3.00;;;1.50;;
64710;SDS011;51139;45.626;6.850;2024-02-04T17:59:49;5.00;;;1.88;;
64710;SDS011;51139;45.626;6.850;2024-02-04T18:02:15;5.18;;;1.95;;
64710;SDS011;51139;45.626;6.850;2024-02-04T18:04:42;5.60;;;1.52;;
64710;SDS011;51139;45.626;6.850;2024-02-04T18:07:08;2.40;;;1.33;;
64710;SDS011;51139;45.626;6.850;2024-02-04T18:09:34;4.43;;;1.77;;
64710;SDS011;51139;45.626;6.850;2024-02-04T18:12:04;5.43;;;2.25;;
64710;SDS011;51139;45.626;6.850;2024-02-04T18:14:30;7.88;;;2.00;;
64710;SDS011;51139;45.626;6.850;2024-02-04T18:16:56;8.10;;;2.08;;
64710;SDS011;51139;45.626;6.850;2024-02-04T18:19:21;5.70;;;2.00;;
64710;SDS011;51139;45.626;6.850;2024-02-04T18:21:47;6.97;;;2.83;;
64710;SDS011;51139;45.626;6.850;2024-02-04T18:24:14;8.30;;;2.80;;
64710;SDS011;51139;45.626;6.850;2024-02-04T18:26:40;11.02;;;2.67;;
64710;SDS011;51139;45.626;6.850;2024-02-04T18:29:07;5.00;;;1.75;;
64710;SDS011;51139;45.626;6.850;2024-02-04T18:31:33;4.93;;;1.60;;
64710;SDS011;51139;45.626;6.850;2024-02-04T18:33:58;8.38;;;1.58;;
64710;SDS011;51139;45.626;6.850;2024-02-04T18:36:24;4.07;;;1.38;;
64710;SDS011;51139;45.626;6.850;2024-02-04T18:38:54;5.38;;;1.80;;
64710;SDS011;51139;45.626;6.850;2024-02-04T18:41:22;16.58;;;2.80;;
64710;SDS011;51139;45.626;6.850;2024-02-04T18:43:49;7.65;;;2.30;;
64710;SDS011;51139;45.626;6.850;2024-02-04T18:46:15;7.85;;;3.00;;
64710;SDS011;51139;45.626;6.850;2024-02-04T18:48:43;5.82;;;3.03;;
64710;SDS011;51139;45.626;6.850;2024-02-04T18:51:09;7.57;;;4.20;;
64710;SDS011;51139;45.626;6.850;2024-02-04T18:53:34;8.70;;;4.60;;
64710;SDS011;51139;45.626;6.850;2024-02-04T18:56:04;9.98;;;2.75;;
64710;SDS011;51139;45.626;6.850;2024-02-04T18:58:30;4.43;;;2.10;;
64710;SDS011;51139;45.626;6.850;2024-02-04T19:00:56;6.30;;;2.47;;
64710;SDS011;51139;45.626;6.850;2024-02-04T19:03:22;13.57;;;3.20;;
64710;SDS011;51139;45.626;6.850;2024-02-04T19:05:47;19.38;;;3.53;;
64710;SDS011;51139;45.626;6.850;2024-02-04T19:08:14;12.95;;;3.55;;
64710;SDS011;51139;45.626;6.850;2024-02-04T19:10:40;10.23;;;6.30;;
64710;SDS011;51139;45.626;6.850;2024-02-04T19:13:06;10.25;;;5.13;;
64710;SDS011;51139;45.626;6.850;2024-02-04T19:15:31;20.15;;;7.32;;
64710;SDS011;51139;45.626;6.850;2024-02-04T19:17:57;19.25;;;8.13;;
64710;SDS011;51139;45.626;6.850;2024-02-04T19:20:23;20.00;;;11.52;;
64710;SDS011;51139;45.626;6.850;2024-02-04T19:22:49;48.60;;;31.10;;
64710;SDS011;51139;45.626;6.850;2024-02-04T19:25:15;79.57;;;41.70;;
64710;SDS011;51139;45.626;6.850;2024-02-04T19:30:13;31.70;;;17.20;;
64710;SDS011;51139;45.626;6.850;2024-02-04T19:32:43;9.57;;;5.30;;
64710;SDS011;51139;45.626;6.850;2024-02-04T19:35:18;12.32;;;7.53;;
64710;SDS011;51139;45.626;6.850;2024-02-04T19:37:45;7.40;;;3.05;;
64710;SDS011;51139;45.626;6.850;2024-02-04T19:40:11;6.30;;;2.20;;
64710;SDS011;51139;45.626;6.850;2024-02-04T19:42:38;12.90;;;5.57;;
64710;SDS011;51139;45.626;6.850;2024-02-04T19:45:04;15.50;;;6.75;;
64710;SDS011;51139;45.626;6.850;2024-02-04T19:47:33;13.93;;;6.40;;
64710;SDS011;51139;45.626;6.850;2024-02-04T19:49:59;18.95;;;9.82;;
64710;SDS011;51139;45.626;6.850;2024-02-04T19:52:24;21.70;;;13.45;;
64710;SDS011;51139;45.626;6.850;2024-02-04T19:54:50;21.17;;;10.82;;
64710;SDS011;51139;45.626;6.850;2024-02-04T19:57:15;12.35;;;5.85;;
64710;SDS011;51139;45.626;6.850;2024-02-04T19:59:42;17.23;;;10.00;;
64710;SDS011;51139;45.626;6.850;2024-02-04T20:02:10;25.38;;;16.02;;
64710;SDS011;51139;45.626;6.850;2024-02-04T20:04:36;27.33;;;14.63;;
64710;SDS011;51139;45.626;6.850;2024-02-04T20:07:01;49.08;;;23.15;;
64710;SDS011;51139;45.626;6.850;2024-02-04T20:09:30;13.27;;;6.90;;
64710;SDS011;51139;45.626;6.850;2024-02-04T20:12:00;14.70;;;6.22;;
64710;SDS011;51139;45.626;6.850;2024-02-04T20:14:25;20.08;;;8.30;;
64710;SDS011;51139;45.626;6.850;2024-02-04T20:16:52;12.88;;;4.50;;
64710;SDS011;51139;45.626;6.850;2024-02-04T20:19:17;11.65;;;5.10;;
64710;SDS011;51139;45.626;6.850;2024-02-04T20:21:43;10.98;;;5.28;;
64710;SDS011;51139;45.626;6.850;2024-02-04T20:24:09;22.13;;;10.50;;
64710;SDS011;51139;45.626;6.850;2024-02-04T20:26:34;21.35;;;11.65;;
64710;SDS011;51139;45.626;6.850;2024-02-04T20:29:00;11.43;;;5.55;;
64710;SDS011;51139;45.626;6.850;2024-02-04T20:31:26;30.65;;;14.48;;
64710;SDS011;51139;45.626;6.850;2024-02-04T20:33:51;14.45;;;8.23;;
64710;SDS011;51139;45.626;6.850;2024-02-04T20:36:17;19.48;;;10.63;;
64710;SDS011;51139;45.626;6.850;2024-02-04T20:38:42;19.13;;;10.90;;
64710;SDS011;51139;45.626;6.850;2024-02-04T20:41:08;21.33;;;11.30;;
64710;SDS011;51139;45.626;6.850;2024-02-04T20:43:34;14.43;;;4.55;;
64710;SDS011;51139;45.626;6.850;2024-02-04T20:45:59;13.80;;;4.82;;
64710;SDS011;51139;45.626;6.850;2024-02-04T20:48:26;19.48;;;8.63;;
64710;SDS011;51139;45.626;6.850;2024-02-04T20:50:52;13.63;;;6.60;;
64710;SDS011;51139;45.626;6.850;2024-02-04T20:53:17;14.90;;;6.07;;
64710;SDS011;51139;45.626;6.850;2024-02-04T20:55:43;11.88;;;5.65;;
64710;SDS011;51139;45.626;6.850;2024-02-04T20:58:08;10.70;;;4.30;;
64710;SDS011;51139;45.626;6.850;2024-02-04T21:00:34;24.05;;;11.77;;
64710;SDS011;51139;45.626;6.850;2024-02-04T21:02:59;24.15;;;9.13;;
64710;SDS011;51139;45.626;6.850;2024-02-04T21:05:25;9.70;;;3.63;;
64710;SDS011;51139;45.626;6.850;2024-02-04T21:07:53;17.23;;;7.85;;
64710;SDS011;51139;45.626;6.850;2024-02-04T21:10:20;12.38;;;7.78;;
64710;SDS011;51139;45.626;6.850;2024-02-04T21:12:46;5.50;;;3.33;;
64710;SDS011;51139;45.626;6.850;2024-02-04T21:15:11;11.88;;;6.15;;
64710;SDS011;51139;45.626;6.850;2024-02-04T21:17:37;5.63;;;3.90;;
64710;SDS011;51139;45.626;6.850;2024-02-04T21:20:03;5.05;;;2.15;;
64710;SDS011;51139;45.626;6.850;2024-02-04T21:22:31;6.85;;;3.03;;
64710;SDS011;51139;45.626;6.850;2024-02-04T21:24:57;6.45;;;3.30;;
64710;SDS011;51139;45.626;6.850;2024-02-04T21:27:22;8.73;;;4.30;;
64710;SDS011;51139;45.626;6.850;2024-02-04T21:29:48;11.20;;;3.80;;
64710;SDS011;51139;45.626;6.850;2024-02-04T21:32:13;7.50;;;4.25;;
64710;SDS011;51139;45.626;6.850;2024-02-04T21:34:40;7.00;;;3.65;;
64710;SDS011;51139;45.626;6.850;2024-02-04T21:37:05;7.28;;;3.28;;
64710;SDS011;51139;45.626;6.850;2024-02-04T21:39:31;5.70;;;3.90;;
64710;SDS011;51139;45.626;6.850;2024-02-04T21:41:59;5.78;;;3.83;;
64710;SDS011;51139;45.626;6.850;2024-02-04T21:44:26;5.05;;;2.45;;
64710;SDS011;51139;45.626;6.850;2024-02-04T21:46:51;2.50;;;1.08;;
64710;SDS011;51139;45.626;6.850;2024-02-04T21:49:17;3.28;;;1.52;;
64710;SDS011;51139;45.626;6.850;2024-02-04T21:51:42;5.82;;;1.75;;
64710;SDS011;51139;45.626;6.850;2024-02-04T21:54:08;3.22;;;1.20;;
64710;SDS011;51139;45.626;6.850;2024-02-04T21:56:33;8.30;;;2.90;;
64710;SDS011;51139;45.626;6.850;2024-02-04T21:58:59;17.48;;;7.38;;
64710;SDS011;51139;45.626;6.850;2024-02-04T22:01:24;4.38;;;1.80;;
64710;SDS011;51139;45.626;6.850;2024-02-04T22:03:49;18.73;;;7.70;;
64710;SDS011;51139;45.626;6.850;2024-02-04T22:06:15;6.10;;;2.58;;
64710;SDS011;51139;45.626;6.850;2024-02-04T22:08:43;1.60;;;0.93;;
64710;SDS011;51139;45.626;6.850;2024-02-04T22:11:08;3.60;;;1.13;;
64710;SDS011;51139;45.626;6.850;2024-02-04T22:13:34;1.52;;;0.80;;
64710;SDS011;51139;45.626;6.850;2024-02-04T22:15:59;3.33;;;1.35;;
64710;SDS011;51139;45.626;6.850;2024-02-04T22:18:24;1.85;;;0.90;;
64710;SDS011;51139;45.626;6.850;2024-02-04T22:20:50;3.58;;;1.00;;
64710;SDS011;51139;45.626;6.850;2024-02-04T22:23:15;2.35;;;1.08;;
64710;SDS011;51139;45.626;6.850;2024-02-04T22:25:41;1.50;;;0.90;;
64710;SDS011;51139;45.626;6.850;2024-02-04T22:28:06;1.42;;;0.77;;
64710;SDS011;51139;45.626;6.850;2024-02-04T22:30:32;1.17;;;0.50;;
64710;SDS011;51139;45.626;6.850;2024-02-04T22:32:57;3.17;;;0.80;;
64710;SDS011;51139;45.626;6.850;2024-02-04T22:35:23;2.20;;;0.80;;
64710;SDS011;51139;45.626;6.850;2024-02-04T22:37:49;1.38;;;0.77;;